Time,TemperatureF,DewpointF,PressureIn,WindDirection,WindDirectionDegrees,WindSpeedMPH,WindSpeedGustMPH,Humidity,HourlyPrecipIn,Conditions,Clouds,dailyrainin,SoftwareType,DateUTC
2013-06-21 00:04:00,65.6,59.2,27.32,NW,315,0.0,0.0,80,0.00,,,0.00,WSDL version 420,2013-06-21 04:04:00,
2013-06-21 00:09:00,65.4,59.1,27.32,NW,315,0.0,0.0,80,0.00,,,0.00,WSDL version 420,2013-06-21 04:09:00,
2013-06-21 00:14:00,65.2,58.9,27.32,NW,315,0.0,0.0,80,0.00,,,0.00,WSDL version 420,2013-06-21 04:14:00,
2013-06-21 00:19:00,65.2,59.1,27.34,NW,315,0.0,0.0,81,0.00,,,0.00,WSDL version 420,2013-06-21 04:19:00,
2013-06-21 00:24:00,65.2,59.3,27.34,NW,315,0.0,0.0,81,0.00,,,0.00,WSDL version 420,2013-06-21 04:24:00,
2013-06-21 00:29:00,65.2,59.3,27.34,NW,315,0.0,0.0,81,0.00,,,0.00,WSDL version 420,2013-06-21 04:29:00,
2013-06-21 00:34:00,65.2,59.3,27.34,NW,315,0.0,0.0,81,0.00,,,0.00,WSDL version 420,2013-06-21 04:34:00,
2013-06-21 00:39:00,65.2,59.3,27.34,NW,315,0.0,0.0,81,0.00,,,0.00,WSDL version 420,2013-06-21 04:39:00,
2013-06-21 00:44:00,65.2,59.4,27.34,NW,315,0.0,0.0,81,0.00,,,0.00,WSDL version 420,2013-06-21 04:44:00,
2013-06-21 00:49:00,65.2,59.5,27.34,NW,315,0.0,0.0,81,0.00,,,0.00,WSDL version 420,2013-06-21 04:49:00,
2013-06-21 00:54:00,65.2,59.7,27.34,NW,315,0.0,0.0,82,0.00,,,0.00,WSDL version 420,2013-06-21 04:54:00,
2013-06-21 00:59:00,65.2,59.7,27.34,NW,315,0.0,0.0,82,0.00,,,0.00,WSDL version 420,2013-06-21 04:59:00,
2013-06-21 01:04:00,65.4,59.8,27.32,NW,315,0.0,0.0,82,0.00,,,0.00,WSDL version 420,2013-06-21 05:04:00,
2013-06-21 01:09:00,65.3,59.8,27.32,NW,315,0.0,0.0,82,0.00,,,0.00,WSDL version 420,2013-06-21 05:09:00,
2013-06-21 01:14:00,65.2,59.7,27.32,NW,315,0.0,0.0,82,0.00,,,0.00,WSDL version 420,2013-06-21 05:14:00,
2013-06-21 01:19:00,65.1,59.5,27.32,NW,315,0.0,0.0,82,0.00,,,0.00,WSDL version 420,2013-06-21 05:19:00,
2013-06-21 01:24:00,65.0,59.5,27.32,NW,315,0.0,0.0,82,0.00,,,0.00,WSDL version 420,2013-06-21 05:24:00,
2013-06-21 01:29:00,65.0,59.4,27.32,NW,315,0.0,0.0,82,0.00,,,0.00,WSDL version 420,2013-06-21 05:29:00,
2013-06-21 01:34:00,64.9,59.3,27.32,NW,315,0.0,0.0,82,0.00,,,0.00,WSDL version 420,2013-06-21 05:34:00,
2013-06-21 01:39:00,64.9,59.3,27.32,NW,315,0.0,0.0,82,0.00,,,0.00,WSDL version 420,2013-06-21 05:39:00,
2013-06-21 01:44:00,64.7,59.2,27.32,NW,315,0.0,0.0,82,0.00,,,0.00,WSDL version 420,2013-06-21 05:44:00,
2013-06-21 01:49:00,64.8,59.5,27.32,NW,315,0.0,0.0,83,0.00,,,0.00,WSDL version 420,2013-06-21 05:49:00,
2013-06-21 01:54:00,64.9,59.7,27.32,NW,315,0.0,0.0,83,0.00,,,0.00,WSDL version 420,2013-06-21 05:54:00,
2013-06-21 01:59:00,64.8,59.6,27.32,NW,315,0.0,0.0,83,0.00,,,0.00,WSDL version 420,2013-06-21 05:59:00,
2013-06-21 02:04:00,64.8,59.6,27.32,NW,315,0.0,0.0,83,0.00,,,0.00,WSDL version 420,2013-06-21 06:04:00,
2013-06-21 02:09:00,64.8,59.4,27.32,NW,315,0.0,0.0,82,0.00,,,0.00,WSDL version 420,2013-06-21 06:09:00,
2013-06-21 02:14:00,64.7,59.4,27.32,NW,315,0.0,0.0,83,0.00,,,0.00,WSDL version 420,2013-06-21 06:14:00,
2013-06-21 02:19:00,64.7,59.5,27.32,NW,315,0.0,0.0,83,0.00,,,0.00,WSDL version 420,2013-06-21 06:19:00,
2013-06-21 02:24:00,64.5,59.4,27.32,NW,315,0.0,0.0,83,0.00,,,0.00,WSDL version 420,2013-06-21 06:24:00,
2013-06-21 02:29:00,64.5,59.3,27.32,NW,315,0.0,0.0,83,0.00,,,0.00,WSDL version 420,2013-06-21 06:29:00,
2013-06-21 02:34:00,64.4,59.3,27.32,NW,315,0.0,0.0,83,0.00,,,0.00,WSDL version 420,2013-06-21 06:34:00,
2013-06-21 02:39:00,64.3,59.2,27.32,NW,315,0.0,0.0,83,0.00,,,0.00,WSDL version 420,2013-06-21 06:39:00,
2013-06-21 02:44:00,64.1,58.9,27.32,NW,315,0.0,0.0,83,0.00,,,0.00,WSDL version 420,2013-06-21 06:44:00,
2013-06-21 02:49:00,63.9,58.8,27.32,NW,315,0.0,0.0,83,0.00,,,0.00,WSDL version 420,2013-06-21 06:49:00,
2013-06-21 02:54:00,63.7,58.6,27.32,NW,315,0.0,0.0,83,0.00,,,0.00,WSDL version 420,2013-06-21 06:54:00,
2013-06-21 02:59:00,63.5,58.4,27.32,NW,315,0.0,0.0,83,0.00,,,0.00,WSDL version 420,2013-06-21 06:59:00,
2013-06-21 03:04:00,63.4,58.3,27.32,NW,315,0.0,0.0,83,0.00,,,0.00,WSDL version 420,2013-06-21 07:04:00,
2013-06-21 03:09:00,63.2,58.1,27.32,NW,315,0.0,0.0,83,0.00,,,0.00,WSDL version 420,2013-06-21 07:09:00,
2013-06-21 03:14:00,63.1,58.0,27.32,NW,315,0.0,0.0,83,0.00,,,0.00,WSDL version 420,2013-06-21 07:14:00,
2013-06-21 03:21:00,62.9,57.8,27.32,NW,315,0.0,0.0,83,0.00,,,0.00,WSDL version 420,2013-06-21 07:21:00,
2013-06-21 03:26:00,62.8,57.8,27.32,NW,315,0.0,0.0,84,0.00,,,0.00,WSDL version 420,2013-06-21 07:26:00,
2013-06-21 03:31:00,62.7,57.9,27.32,NW,315,0.0,0.0,84,0.00,,,0.00,WSDL version 420,2013-06-21 07:31:00,
2013-06-21 03:36:00,62.6,57.8,27.32,NW,315,0.0,0.0,84,0.00,,,0.00,WSDL version 420,2013-06-21 07:36:00,
2013-06-21 03:41:00,62.4,57.6,27.32,NW,315,0.0,0.0,84,0.00,,,0.00,WSDL version 420,2013-06-21 07:41:00,
2013-06-21 03:46:00,62.3,57.6,27.32,NW,315,0.0,0.0,84,0.00,,,0.00,WSDL version 420,2013-06-21 07:46:00,
2013-06-21 03:51:00,62.3,57.5,27.32,NW,315,0.0,0.0,84,0.00,,,0.00,WSDL version 420,2013-06-21 07:51:00,
2013-06-21 03:56:00,62.2,57.4,27.32,NW,315,0.0,0.0,84,0.00,,,0.00,WSDL version 420,2013-06-21 07:56:00,
2013-06-21 04:01:00,62.2,57.8,27.32,NW,315,0.0,0.0,86,0.00,,,0.00,WSDL version 420,2013-06-21 08:01:00,
2013-06-21 04:06:00,62.0,57.6,27.32,NW,315,0.0,0.0,86,0.00,,,0.00,WSDL version 420,2013-06-21 08:06:00,
2013-06-21 04:11:00,61.9,57.6,27.32,NW,315,0.0,0.0,86,0.00,,,0.00,WSDL version 420,2013-06-21 08:11:00,
2013-06-21 04:16:00,61.8,57.4,27.32,NW,315,0.0,0.0,86,0.00,,,0.00,WSDL version 420,2013-06-21 08:16:00,
2013-06-21 04:21:00,61.8,57.4,27.32,NW,315,0.0,0.0,86,0.00,,,0.00,WSDL version 420,2013-06-21 08:21:00,
2013-06-21 04:26:00,61.6,57.3,27.32,NW,315,0.0,0.0,86,0.00,,,0.00,WSDL version 420,2013-06-21 08:26:00,
2013-06-21 04:31:00,61.6,57.3,27.32,NW,315,0.0,0.0,86,0.00,,,0.00,WSDL version 420,2013-06-21 08:31:00,
2013-06-21 04:36:00,61.4,57.1,27.32,NW,315,0.0,0.0,86,0.00,,,0.00,WSDL version 420,2013-06-21 08:36:00,
2013-06-21 04:41:00,61.4,57.1,27.32,NW,315,0.0,0.0,86,0.00,,,0.00,WSDL version 420,2013-06-21 08:41:00,
2013-06-21 04:46:00,61.4,57.1,27.32,NW,315,0.0,0.0,86,0.00,,,0.00,WSDL version 420,2013-06-21 08:46:00,
2013-06-21 04:51:00,61.2,56.9,27.32,NW,315,0.0,0.0,86,0.00,,,0.00,WSDL version 420,2013-06-21 08:51:00,
2013-06-21 04:56:00,61.1,56.8,27.32,NW,315,0.0,0.0,87,0.00,,,0.00,WSDL version 420,2013-06-21 08:56:00,
2013-06-21 05:01:00,61.1,57.1,27.32,NW,315,0.0,0.0,87,0.00,,,0.00,WSDL version 420,2013-06-21 09:01:00,
2013-06-21 05:06:00,60.9,56.9,27.32,NW,315,0.0,0.0,87,0.00,,,0.00,WSDL version 420,2013-06-21 09:06:00,
2013-06-21 05:11:00,60.9,56.9,27.32,NW,315,0.0,0.0,87,0.00,,,0.00,WSDL version 420,2013-06-21 09:11:00,
2013-06-21 05:16:00,60.9,56.9,27.32,NW,315,0.0,0.0,87,0.00,,,0.00,WSDL version 420,2013-06-21 09:16:00,
2013-06-21 05:21:00,60.8,57.0,27.32,NW,315,0.0,0.0,87,0.00,,,0.00,WSDL version 420,2013-06-21 09:21:00,
2013-06-21 05:26:00,60.7,56.7,27.32,NW,315,0.0,0.0,87,0.00,,,0.00,WSDL version 420,2013-06-21 09:26:00,
2013-06-21 05:31:00,60.5,56.5,27.32,NW,315,0.0,0.0,87,0.00,,,0.00,WSDL version 420,2013-06-21 09:31:00,
2013-06-21 05:36:00,60.5,56.8,27.32,NW,315,0.0,0.0,87,0.00,,,0.00,WSDL version 420,2013-06-21 09:36:00,
2013-06-21 05:41:00,60.5,56.5,27.32,NW,315,0.0,0.0,87,0.00,,,0.00,WSDL version 420,2013-06-21 09:41:00,
2013-06-21 05:46:00,60.4,56.4,27.32,NW,315,0.0,0.0,87,0.00,,,0.00,WSDL version 420,2013-06-21 09:46:00,
2013-06-21 05:51:00,60.4,56.5,27.32,NW,315,0.0,0.0,88,0.00,,,0.00,WSDL version 420,2013-06-21 09:51:00,
2013-06-21 05:56:00,60.2,56.2,27.32,NW,315,0.0,0.0,87,0.00,,,0.00,WSDL version 420,2013-06-21 09:56:00,
2013-06-21 06:01:00,60.2,56.2,27.32,NW,315,0.0,0.0,87,0.00,,,0.00,WSDL version 420,2013-06-21 10:01:00,
2013-06-21 06:06:00,60.0,56.0,27.32,NW,315,0.0,0.0,87,0.00,,,0.00,WSDL version 420,2013-06-21 10:06:00,
2013-06-21 06:11:00,60.0,56.1,27.32,NW,315,0.0,0.0,87,0.00,,,0.00,WSDL version 420,2013-06-21 10:11:00,
2013-06-21 06:16:00,59.8,56.2,27.32,NW,315,0.0,0.0,88,0.00,,,0.00,WSDL version 420,2013-06-21 10:16:00,
2013-06-21 06:21:00,59.8,56.2,27.32,NW,315,0.0,0.0,88,0.00,,,0.00,WSDL version 420,2013-06-21 10:21:00,
2013-06-21 06:26:00,59.8,56.2,27.32,NW,315,0.0,0.0,88,0.00,,,0.00,WSDL version 420,2013-06-21 10:26:00,
2013-06-21 06:31:00,59.8,56.3,27.32,NW,315,0.0,0.0,89,0.00,,,0.00,WSDL version 420,2013-06-21 10:31:00,
2013-06-21 06:36:00,59.8,56.5,27.32,NW,315,0.0,0.0,89,0.00,,,0.00,WSDL version 420,2013-06-21 10:36:00,
2013-06-21 06:41:00,60.0,56.7,27.32,NW,315,0.0,0.0,89,0.00,,,0.00,WSDL version 420,2013-06-21 10:41:00,
2013-06-21 06:46:00,60.0,56.7,27.32,NW,315,0.0,0.0,89,0.00,,,0.00,WSDL version 420,2013-06-21 10:46:00,
2013-06-21 06:51:00,60.1,56.8,27.32,NW,315,0.0,0.0,89,0.00,,,0.00,WSDL version 420,2013-06-21 10:51:00,
2013-06-21 06:56:00,60.2,57.2,27.32,NW,315,0.0,0.0,90,0.00,,,0.00,WSDL version 420,2013-06-21 10:56:00,
2013-06-21 07:01:00,60.4,57.4,27.32,NW,315,0.0,0.0,90,0.00,,,0.00,WSDL version 420,2013-06-21 11:01:00,
2013-06-21 07:06:00,60.5,57.6,27.32,NW,315,0.0,0.0,90,0.00,,,0.00,WSDL version 420,2013-06-21 11:06:00,
2013-06-21 07:11:00,60.6,57.7,27.32,NW,315,0.0,0.0,90,0.00,,,0.00,WSDL version 420,2013-06-21 11:11:00,
2013-06-21 07:16:00,60.9,58.0,27.32,NW,315,0.0,0.0,90,0.00,,,0.00,WSDL version 420,2013-06-21 11:16:00,
2013-06-21 07:21:00,61.0,58.0,27.32,NW,315,0.0,0.0,90,0.00,,,0.00,WSDL version 420,2013-06-21 11:21:00,
2013-06-21 07:26:00,60.9,58.0,27.32,NW,315,0.0,0.0,90,0.00,,,0.00,WSDL version 420,2013-06-21 11:26:00,
2013-06-21 07:31:00,61.0,58.0,27.32,NW,315,0.0,0.0,90,0.00,,,0.00,WSDL version 420,2013-06-21 11:31:00,
2013-06-21 07:36:00,61.1,58.1,27.32,NW,315,0.0,0.0,90,0.00,,,0.00,WSDL version 420,2013-06-21 11:36:00,
2013-06-21 07:41:00,61.1,58.2,27.32,NW,315,0.0,0.0,90,0.00,,,0.00,WSDL version 420,2013-06-21 11:41:00,
2013-06-21 07:46:00,61.4,58.4,27.32,NW,315,0.0,0.0,90,0.00,,,0.00,WSDL version 420,2013-06-21 11:46:00,
2013-06-21 07:51:00,61.5,58.5,27.34,NW,315,0.0,0.0,90,0.00,,,0.00,WSDL version 420,2013-06-21 11:51:00,
2013-06-21 07:56:00,61.6,58.7,27.34,NW,315,0.0,0.0,90,0.00,,,0.00,WSDL version 420,2013-06-21 11:56:00,
2013-06-21 08:01:00,61.7,58.8,27.34,NW,315,0.0,0.0,90,0.00,,,0.00,WSDL version 420,2013-06-21 12:01:00,
2013-06-21 08:06:00,61.9,59.2,27.32,NW,315,0.0,0.0,91,0.00,,,0.00,WSDL version 420,2013-06-21 12:06:00,
2013-06-21 08:11:00,62.3,59.7,27.32,NW,315,0.0,0.0,91,0.00,,,0.00,WSDL version 420,2013-06-21 12:11:00,
2013-06-21 08:16:00,62.9,60.3,27.32,NW,315,0.0,0.0,91,0.00,,,0.00,WSDL version 420,2013-06-21 12:16:00,
2013-06-21 08:21:00,63.3,60.6,27.34,NW,315,0.0,0.0,91,0.00,,,0.00,WSDL version 420,2013-06-21 12:21:00,
2013-06-21 08:26:00,63.5,60.9,27.34,NW,315,0.7,2.5,91,0.00,,,0.00,WSDL version 420,2013-06-21 12:26:00,
2013-06-21 08:31:00,63.6,60.6,27.34,NW,315,0.0,2.5,90,0.00,,,0.00,WSDL version 420,2013-06-21 12:31:00,
2013-06-21 08:37:00,64.0,61.0,27.34,NW,315,0.0,1.6,90,0.00,,,0.00,WSDL version 420,2013-06-21 12:37:00,
2013-06-21 08:42:00,64.1,61.0,27.34,NW,315,0.0,1.1,89,0.00,,,0.00,WSDL version 420,2013-06-21 12:42:00,
2013-06-21 08:47:00,64.1,60.8,27.34,NW,315,0.4,1.6,89,0.00,,,0.00,WSDL version 420,2013-06-21 12:47:00,
2013-06-21 08:52:00,64.3,61.0,27.34,NW,315,0.0,1.6,89,0.00,,,0.00,WSDL version 420,2013-06-21 12:52:00,
2013-06-21 08:57:00,64.4,60.9,27.34,NW,315,0.0,1.1,88,0.00,,,0.00,WSDL version 420,2013-06-21 12:57:00,
2013-06-21 09:02:00,64.5,60.8,27.34,NW,315,0.0,1.1,88,0.00,,,0.00,WSDL version 420,2013-06-21 13:02:00,
2013-06-21 09:07:00,64.6,60.6,27.34,NW,315,0.0,0.0,87,0.00,,,0.00,WSDL version 420,2013-06-21 13:07:00,
2013-06-21 09:12:00,64.8,60.7,27.34,NW,315,0.0,0.0,87,0.00,,,0.00,WSDL version 420,2013-06-21 13:12:00,
2013-06-21 09:17:00,65.0,60.9,27.34,NW,315,0.0,0.0,87,0.00,,,0.00,WSDL version 420,2013-06-21 13:17:00,
2013-06-21 09:22:00,65.3,60.9,27.34,NW,315,0.0,0.0,86,0.00,,,0.00,WSDL version 420,2013-06-21 13:22:00,
2013-06-21 09:27:00,65.6,61.2,27.34,NW,315,0.0,0.0,86,0.00,,,0.00,WSDL version 420,2013-06-21 13:27:00,
2013-06-21 09:32:00,66.0,61.5,27.34,NW,315,0.0,0.0,85,0.00,,,0.00,WSDL version 420,2013-06-21 13:32:00,
2013-06-21 09:38:00,66.1,61.3,27.34,NW,315,0.0,0.0,84,0.00,,,0.00,WSDL version 420,2013-06-21 13:38:00,
2013-06-21 09:42:00,66.6,61.3,27.34,NW,315,0.6,2.7,82,0.00,,,0.00,WSDL version 420,2013-06-21 13:42:00,
2013-06-21 09:47:00,67.5,61.9,27.34,NW,315,0.7,2.7,82,0.00,,,0.00,WSDL version 420,2013-06-21 13:47:00,
2013-06-21 09:52:00,68.2,61.9,27.34,NW,315,1.1,3.4,80,0.00,,,0.00,WSDL version 420,2013-06-21 13:52:00,
2013-06-21 09:57:00,68.6,61.9,27.34,NW,315,1.0,3.6,79,0.00,,,0.00,WSDL version 420,2013-06-21 13:57:00,
2013-06-21 10:02:00,68.5,61.1,27.34,NW,315,0.0,3.6,76,0.00,,,0.00,WSDL version 420,2013-06-21 14:02:00,
2013-06-21 10:07:00,68.2,60.3,27.34,NW,315,0.0,3.4,76,0.00,,,0.00,WSDL version 420,2013-06-21 14:07:00,
2013-06-21 10:12:00,67.9,59.8,27.34,NW,315,0.6,3.4,75,0.00,,,0.00,WSDL version 420,2013-06-21 14:12:00,
2013-06-21 10:17:00,67.7,59.4,27.34,NW,315,1.3,2.7,75,0.00,,,0.00,WSDL version 420,2013-06-21 14:17:00,
2013-06-21 10:22:00,67.7,59.4,27.34,NW,315,0.0,3.1,74,0.00,,,0.00,WSDL version 420,2013-06-21 14:22:00,
2013-06-21 10:27:00,67.7,59.4,27.34,NW,315,0.6,3.1,75,0.00,,,0.00,WSDL version 420,2013-06-21 14:27:00,
2013-06-21 10:32:00,67.6,59.2,27.34,NW,315,0.0,1.6,75,0.00,,,0.00,WSDL version 420,2013-06-21 14:32:00,
2013-06-21 10:37:00,67.5,59.2,27.34,NW,315,0.0,1.1,75,0.00,,,0.00,WSDL version 420,2013-06-21 14:37:00,
2013-06-21 10:42:00,67.8,59.6,27.34,NW,315,0.0,1.6,75,0.00,,,0.00,WSDL version 420,2013-06-21 14:42:00,
2013-06-21 10:47:00,68.0,59.8,27.34,NW,315,0.0,1.6,75,0.00,,,0.00,WSDL version 420,2013-06-21 14:47:00,
2013-06-21 10:52:00,68.3,60.1,27.34,NW,315,0.0,2.7,75,0.00,,,0.00,WSDL version 420,2013-06-21 14:52:00,
2013-06-21 10:57:00,68.6,60.1,27.34,NW,315,0.1,2.7,73,0.00,,,0.00,WSDL version 420,2013-06-21 14:57:00,
2013-06-21 11:02:00,68.5,59.8,27.34,NW,315,0.7,2.5,74,0.00,,,0.00,WSDL version 420,2013-06-21 15:02:00,
2013-06-21 11:07:00,68.9,60.3,27.34,NW,315,0.4,2.2,74,0.00,,,0.00,WSDL version 420,2013-06-21 15:07:00,
2013-06-21 11:13:00,69.0,60.4,27.34,NW,315,0.0,1.1,74,0.00,,,0.00,WSDL version 420,2013-06-21 15:13:00,
2013-06-21 11:17:00,69.1,59.9,27.34,NW,315,0.0,2.0,73,0.00,,,0.00,WSDL version 420,2013-06-21 15:17:00,
2013-06-21 11:22:00,69.7,60.6,27.34,NW,315,0.6,2.0,72,0.00,,,0.00,WSDL version 420,2013-06-21 15:22:00,
2013-06-21 11:27:00,69.8,60.3,27.34,NW,315,1.1,2.0,72,0.00,,,0.00,WSDL version 420,2013-06-21 15:27:00,
2013-06-21 11:32:00,69.5,59.5,27.34,NW,315,0.4,2.0,71,0.00,,,0.00,WSDL version 420,2013-06-21 15:32:00,
2013-06-21 11:37:00,70.3,60.3,27.34,NW,315,0.5,4.0,70,0.00,,,0.00,WSDL version 420,2013-06-21 15:37:00,
2013-06-21 11:42:00,71.0,60.7,27.34,NW,315,0.6,4.0,70,0.00,,,0.00,WSDL version 420,2013-06-21 15:42:00,
2013-06-21 11:47:00,71.1,60.4,27.34,NW,315,0.0,3.1,68,0.00,,,0.00,WSDL version 420,2013-06-21 15:47:00,
2013-06-21 11:52:00,70.6,59.3,27.34,NW,315,0.0,2.2,68,0.00,,,0.00,WSDL version 420,2013-06-21 15:52:00,
2013-06-21 11:58:00,70.3,59.2,27.34,NW,315,0.0,0.9,68,0.00,,,0.00,WSDL version 420,2013-06-21 15:58:00,
2013-06-21 12:02:00,69.9,58.4,27.34,NW,315,0.0,2.7,66,0.00,,,0.00,WSDL version 420,2013-06-21 16:02:00,
2013-06-21 12:08:00,70.0,58.4,27.34,NW,315,0.0,2.7,67,0.00,,,0.00,WSDL version 420,2013-06-21 16:08:00,
2013-06-21 12:13:00,70.9,59.5,27.34,NW,315,0.8,2.9,67,0.00,,,0.00,WSDL version 420,2013-06-21 16:13:00,
2013-06-21 12:17:00,71.5,59.9,27.34,NW,315,0.1,2.9,66,0.00,,,0.00,WSDL version 420,2013-06-21 16:17:00,
2013-06-21 12:22:00,71.3,59.5,27.34,NW,315,0.0,1.6,66,0.00,,,0.00,WSDL version 420,2013-06-21 16:22:00,
2013-06-21 12:27:00,72.1,60.1,27.34,NW,315,0.4,1.6,66,0.00,,,0.00,WSDL version 420,2013-06-21 16:27:00,
2013-06-21 12:32:00,73.6,61.2,27.34,NW,315,0.4,2.7,64,0.00,,,0.00,WSDL version 420,2013-06-21 16:32:00,
2013-06-21 12:38:00,74.2,60.9,27.34,NW,315,0.5,2.7,62,0.00,,,0.00,WSDL version 420,2013-06-21 16:38:00,
2013-06-21 12:44:00,73.0,59.1,27.34,NW,315,0.0,2.0,61,0.00,,,0.00,WSDL version 420,2013-06-21 16:44:00,
2013-06-21 12:49:00,73.3,58.9,27.34,NW,315,0.0,2.0,61,0.00,,,0.00,WSDL version 420,2013-06-21 16:49:00,
2013-06-21 12:54:00,73.9,59.7,27.34,NW,315,0.4,2.7,60,0.00,,,0.00,WSDL version 420,2013-06-21 16:54:00,
2013-06-21 12:59:00,74.2,59.2,27.34,NW,315,0.6,2.9,56,0.00,,,0.00,WSDL version 420,2013-06-21 16:59:00,
2013-06-21 13:04:00,74.4,58.3,27.34,NW,315,1.4,3.8,58,0.00,,,0.00,WSDL version 420,2013-06-21 17:04:00,
2013-06-21 13:11:00,75.9,59.2,27.34,NW,315,2.1,3.8,54,0.00,,,0.00,WSDL version 420,2013-06-21 17:11:00,
2013-06-21 13:16:00,76.7,60.0,27.34,NW,315,1.0,3.8,55,0.00,,,0.00,WSDL version 420,2013-06-21 17:16:00,
2013-06-21 13:21:00,77.7,59.3,27.34,NW,315,1.6,3.4,50,0.00,,,0.00,WSDL version 420,2013-06-21 17:21:00,
2013-06-21 13:26:00,77.7,57.1,27.34,NW,315,1.0,3.4,47,0.00,,,0.00,WSDL version 420,2013-06-21 17:26:00,
2013-06-21 13:31:00,78.1,57.9,27.34,NW,315,1.8,3.4,49,0.00,,,0.00,WSDL version 420,2013-06-21 17:31:00,
2013-06-21 13:36:00,78.6,57.7,27.34,NW,315,2.0,3.4,49,0.00,,,0.00,WSDL version 420,2013-06-21 17:36:00,
2013-06-21 13:41:00,78.9,56.8,27.34,NW,315,2.2,3.4,46,0.00,,,0.00,WSDL version 420,2013-06-21 17:41:00,
2013-06-21 13:52:00,79.5,57.8,27.34,NW,315,1.2,3.4,47,0.00,,,0.00,WSDL version 420,2013-06-21 17:52:00,
2013-06-21 13:57:00,79.6,57.1,27.34,NW,315,1.7,3.6,45,0.00,,,0.00,WSDL version 420,2013-06-21 17:57:00,
2013-06-21 14:02:00,79.7,56.7,27.34,NW,315,1.3,3.6,45,0.00,,,0.00,WSDL version 420,2013-06-21 18:02:00,
2013-06-21 14:11:00,80.0,56.6,27.34,NW,315,1.7,3.6,45,0.00,,,0.00,WSDL version 420,2013-06-21 18:11:00,
2013-06-21 14:19:00,80.4,56.0,27.34,NW,315,1.6,3.4,43,0.00,,,0.00,WSDL version 420,2013-06-21 18:19:00,
2013-06-21 14:24:00,80.3,54.9,27.34,NW,315,0.3,3.4,43,0.00,,,0.00,WSDL version 420,2013-06-21 18:24:00,
2013-06-21 14:29:00,80.3,55.3,27.34,NW,315,1.6,3.6,43,0.00,,,0.00,WSDL version 420,2013-06-21 18:29:00,
2013-06-21 14:34:00,80.6,55.6,27.34,NW,315,1.4,3.6,42,0.00,,,0.00,WSDL version 420,2013-06-21 18:34:00,
2013-06-21 14:39:00,80.3,55.3,27.34,NW,315,0.7,2.9,42,0.00,,,0.00,WSDL version 420,2013-06-21 18:39:00,
2013-06-21 14:46:00,80.0,54.3,27.34,NW,315,2.0,3.1,42,0.00,,,0.00,WSDL version 420,2013-06-21 18:46:00,
2013-06-21 14:51:00,80.1,54.8,27.34,NW,315,2.5,4.3,42,0.00,,,0.00,WSDL version 420,2013-06-21 18:51:00,
2013-06-21 14:56:00,80.1,54.7,27.34,NW,309,2.0,5.8,42,0.00,,,0.00,WSDL version 420,2013-06-21 18:56:00,
2013-06-21 15:01:00,80.3,55.0,27.34,East,83,0.5,5.8,42,0.00,,,0.00,WSDL version 420,2013-06-21 19:01:00,
2013-06-21 15:13:00,80.5,54.5,27.32,East,82,1.0,3.8,42,0.00,,,0.00,WSDL version 420,2013-06-21 19:13:00,
2013-06-21 15:20:00,80.5,54.5,27.32,NNE,33,2.0,3.6,41,0.00,,,0.00,WSDL version 420,2013-06-21 19:20:00,
2013-06-21 15:25:00,80.4,54.4,27.32,NE,51,1.0,4.0,41,0.00,,,0.00,WSDL version 420,2013-06-21 19:25:00,
2013-06-21 15:30:00,80.1,54.0,27.32,North,350,0.0,4.0,41,0.00,,,0.00,WSDL version 420,2013-06-21 19:30:00,
2013-06-21 15:35:00,79.7,53.8,27.32,East,84,0.3,2.5,40,0.00,,,0.00,WSDL version 420,2013-06-21 19:35:00,
2013-06-21 15:40:00,79.6,53.4,27.32,ESE,104,0.6,4.0,41,0.00,,,0.00,WSDL version 420,2013-06-21 19:40:00,
2013-06-21 15:45:00,80.6,54.7,27.32,ESE,105,0.9,4.0,41,0.00,,,0.00,WSDL version 420,2013-06-21 19:45:00,
2013-06-21 15:50:00,80.5,54.2,27.32,SE,135,1.8,3.8,41,0.00,,,0.00,WSDL version 420,2013-06-21 19:50:00,
2013-06-21 15:55:00,80.7,54.8,27.32,ESE,123,1.1,3.8,42,0.00,,,0.00,WSDL version 420,2013-06-21 19:55:00,
2013-06-21 16:00:00,80.9,55.3,27.32,SW,225,0.7,3.6,42,0.00,,,0.00,WSDL version 420,2013-06-21 20:00:00,
2013-06-21 16:05:00,81.0,55.4,27.32,NE,43,1.3,2.9,41,0.00,,,0.00,WSDL version 420,2013-06-21 20:05:00,
2013-06-21 16:10:00,80.9,55.1,27.32,North,354,1.0,2.9,41,0.00,,,0.00,WSDL version 420,2013-06-21 20:10:00,
2013-06-21 16:17:00,80.7,54.7,27.32,North,3,1.6,4.0,41,0.00,,,0.00,WSDL version 420,2013-06-21 20:17:00,
2013-06-21 16:22:00,79.8,53.1,27.32,ESE,103,1.3,4.7,40,0.00,,,0.00,WSDL version 420,2013-06-21 20:22:00,
2013-06-21 16:27:00,79.8,53.3,27.32,NNE,31,1.0,4.7,40,0.00,,,0.00,WSDL version 420,2013-06-21 20:27:00,
2013-06-21 16:32:00,79.8,53.3,27.32,NNW,335,0.1,2.7,40,0.00,,,0.00,WSDL version 420,2013-06-21 20:32:00,
2013-06-21 16:37:00,79.7,54.0,27.32,NW,323,0.0,3.4,41,0.00,,,0.00,WSDL version 420,2013-06-21 20:37:00,
2013-06-21 16:47:00,79.3,52.9,27.32,NW,312,0.7,3.1,40,0.00,,,0.00,WSDL version 420,2013-06-21 20:47:00,
2013-06-21 16:52:00,79.2,52.6,27.32,NNE,28,0.0,3.1,40,0.00,,,0.00,WSDL version 420,2013-06-21 20:52:00,
2013-06-21 16:57:00,79.0,52.8,27.32,NNW,335,1.1,3.1,41,0.00,,,0.00,WSDL version 420,2013-06-21 20:57:00,
2013-06-21 17:02:00,78.8,53.2,27.32,WNW,301,0.1,2.9,41,0.00,,,0.00,WSDL version 420,2013-06-21 21:02:00,
2013-06-21 17:07:00,78.6,53.6,27.32,SW,228,0.8,2.9,42,0.00,,,0.00,WSDL version 420,2013-06-21 21:07:00,
2013-06-21 17:12:00,78.5,53.4,27.32,SW,225,1.7,3.8,42,0.00,,,0.00,WSDL version 420,2013-06-21 21:12:00,
2013-06-21 17:17:00,78.7,53.7,27.32,North,6,0.9,3.8,42,0.00,,,0.00,WSDL version 420,2013-06-21 21:17:00,
2013-06-21 17:22:00,78.3,53.1,27.32,North,360,0.1,3.4,41,0.00,,,0.00,WSDL version 420,2013-06-21 21:22:00,
2013-06-21 17:27:00,78.1,53.2,27.32,NNE,13,0.2,2.7,42,0.00,,,0.00,WSDL version 420,2013-06-21 21:27:00,
2013-06-21 17:32:00,78.0,53.3,27.32,North,358,0.0,3.4,43,0.00,,,0.00,WSDL version 420,2013-06-21 21:32:00,
2013-06-21 17:37:00,77.7,53.5,27.32,North,349,0.5,3.4,43,0.00,,,0.00,WSDL version 420,2013-06-21 21:37:00,
2013-06-21 17:42:00,77.2,52.7,27.32,NNW,345,0.5,3.4,43,0.00,,,0.00,WSDL version 420,2013-06-21 21:42:00,
2013-06-21 17:47:00,76.9,53.0,27.32,NNE,26,0.7,3.4,43,0.00,,,0.00,WSDL version 420,2013-06-21 21:47:00,
2013-06-21 17:52:00,76.5,52.9,27.32,North,350,0.9,3.1,44,0.00,,,0.00,WSDL version 420,2013-06-21 21:52:00,
2013-06-21 17:57:00,76.1,52.7,27.32,NW,318,1.0,3.1,44,0.00,,,0.00,WSDL version 420,2013-06-21 21:57:00,
2013-06-21 18:02:00,75.6,52.7,27.32,NNW,335,0.0,3.1,45,0.00,,,0.00,WSDL version 420,2013-06-21 22:02:00,
2013-06-21 18:07:00,75.2,52.4,27.29,WNW,298,0.1,3.1,45,0.00,,,0.00,WSDL version 420,2013-06-21 22:07:00,
2013-06-21 18:12:00,74.9,52.5,27.29,NNW,335,0.0,1.6,46,0.00,,,0.00,WSDL version 420,2013-06-21 22:12:00,
2013-06-21 18:17:00,74.5,52.6,27.29,North,355,1.0,3.4,47,0.00,,,0.00,WSDL version 420,2013-06-21 22:17:00,
2013-06-21 18:22:00,74.0,52.3,27.29,NW,321,0.6,3.4,47,0.00,,,0.00,WSDL version 420,2013-06-21 22:22:00,
2013-06-21 18:27:00,73.8,52.2,27.29,NNW,333,0.0,2.2,47,0.00,,,0.00,WSDL version 420,2013-06-21 22:27:00,
2013-06-21 18:32:00,73.5,52.4,27.29,NNW,335,0.4,2.2,48,0.00,,,0.00,WSDL version 420,2013-06-21 22:32:00,
2013-06-21 18:37:00,73.3,52.6,27.29,SSE,163,0.3,1.6,48,0.00,,,0.00,WSDL version 420,2013-06-21 22:37:00,
2013-06-21 18:42:00,73.1,52.8,27.29,NW,320,0.0,1.6,49,0.00,,,0.00,WSDL version 420,2013-06-21 22:42:00,
2013-06-21 18:47:00,72.8,52.6,27.29,NW,307,0.0,2.0,49,0.00,,,0.00,WSDL version 420,2013-06-21 22:47:00,
2013-06-21 18:52:00,72.7,52.5,27.29,NNW,345,0.0,2.0,50,0.00,,,0.00,WSDL version 420,2013-06-21 22:52:00,
2013-06-21 18:57:00,72.5,52.8,27.29,NW,326,0.0,1.1,50,0.00,,,0.00,WSDL version 420,2013-06-21 22:57:00,
2013-06-21 19:02:00,72.2,52.6,27.29,NNW,338,0.3,2.0,50,0.00,,,0.00,WSDL version 420,2013-06-21 23:02:00,
2013-06-21 19:07:00,72.0,52.4,27.29,NNW,338,0.0,2.0,50,0.00,,,0.00,WSDL version 420,2013-06-21 23:07:00,
2013-06-21 19:12:00,71.8,52.4,27.29,North,357,0.6,2.0,51,0.00,,,0.00,WSDL version 420,2013-06-21 23:12:00,
2013-06-21 19:17:00,71.8,52.4,27.29,NNW,333,1.1,3.1,51,0.00,,,0.00,WSDL version 420,2013-06-21 23:17:00,
2013-06-21 19:22:00,71.7,52.8,27.29,NW,309,0.7,3.8,51,0.00,,,0.00,WSDL version 420,2013-06-21 23:22:00,
2013-06-21 19:27:00,71.5,53.0,27.29,North,5,0.0,3.8,52,0.00,,,0.00,WSDL version 420,2013-06-21 23:27:00,
2013-06-21 19:32:00,71.5,52.9,27.29,NNW,338,0.0,2.5,52,0.00,,,0.00,WSDL version 420,2013-06-21 23:32:00,
2013-06-21 19:37:00,71.3,53.2,27.29,NNW,338,1.0,2.9,53,0.00,,,0.00,WSDL version 420,2013-06-21 23:37:00,
2013-06-21 19:42:00,71.1,53.1,27.29,NNE,32,0.0,3.1,53,0.00,,,0.00,WSDL version 420,2013-06-21 23:42:00,
2013-06-21 19:47:00,71.1,53.1,27.29,NNW,348,0.0,3.1,53,0.00,,,0.00,WSDL version 420,2013-06-21 23:47:00,
2013-06-21 19:52:00,71.0,53.3,27.29,NNW,338,0.0,1.1,54,0.00,,,0.00,WSDL version 420,2013-06-21 23:52:00,
2013-06-21 19:57:00,70.8,53.6,27.29,NNW,338,0.0,0.0,55,0.00,,,0.00,WSDL version 420,2013-06-21 23:57:00,
2013-06-21 20:02:00,70.7,54.2,27.29,NNW,338,0.0,0.0,56,0.00,,,0.00,WSDL version 420,2013-06-22 00:02:00,
2013-06-21 20:07:00,70.4,54.0,27.29,NNW,338,0.0,0.0,57,0.00,,,0.00,WSDL version 420,2013-06-22 00:07:00,
2013-06-21 20:12:00,70.1,54.6,27.29,NNW,338,0.0,0.0,58,0.00,,,0.00,WSDL version 420,2013-06-22 00:12:00,
2013-06-21 20:17:00,69.8,54.6,27.29,NNW,338,0.0,0.0,59,0.00,,,0.00,WSDL version 420,2013-06-22 00:17:00,
2013-06-21 20:22:00,69.5,55.1,27.29,NNW,338,0.0,0.0,61,0.00,,,0.00,WSDL version 420,2013-06-22 00:22:00,
2013-06-21 20:27:00,69.2,54.9,27.29,NNW,338,0.0,0.0,61,0.00,,,0.00,WSDL version 420,2013-06-22 00:27:00,
2013-06-21 20:32:00,68.9,55.1,27.29,NNW,338,0.0,0.0,62,0.00,,,0.00,WSDL version 420,2013-06-22 00:32:00,
2013-06-21 20:37:00,68.6,55.2,27.29,NNW,338,0.0,0.0,63,0.00,,,0.00,WSDL version 420,2013-06-22 00:37:00,
2013-06-21 20:42:00,68.4,55.1,27.29,NNW,338,0.0,0.0,63,0.00,,,0.00,WSDL version 420,2013-06-22 00:42:00,
2013-06-21 20:52:00,67.8,55.5,27.29,NNW,338,0.0,0.0,65,0.00,,,0.00,WSDL version 420,2013-06-22 00:52:00,
2013-06-21 20:57:00,67.5,55.5,27.29,NNW,338,0.0,0.0,66,0.00,,,0.00,WSDL version 420,2013-06-22 00:57:00,
2013-06-21 21:02:00,67.3,55.5,27.29,NNW,338,0.0,0.0,66,0.00,,,0.00,WSDL version 420,2013-06-22 01:02:00,
2013-06-21 21:07:00,67.1,55.5,27.32,NNW,338,0.0,0.0,67,0.00,,,0.00,WSDL version 420,2013-06-22 01:07:00,
2013-06-21 21:12:00,67.0,55.7,27.32,NNW,338,0.0,0.0,67,0.00,,,0.00,WSDL version 420,2013-06-22 01:12:00,
2013-06-21 21:17:00,66.7,55.7,27.32,NNW,338,0.0,0.0,68,0.00,,,0.00,WSDL version 420,2013-06-22 01:17:00,
2013-06-21 21:22:00,66.5,55.6,27.32,NNW,338,0.0,0.0,68,0.00,,,0.00,WSDL version 420,2013-06-22 01:22:00,
2013-06-21 21:27:00,66.2,55.8,27.32,NNW,338,0.0,0.0,69,0.00,,,0.00,WSDL version 420,2013-06-22 01:27:00,
2013-06-21 21:32:00,66.1,55.8,27.32,NNW,338,0.0,0.0,70,0.00,,,0.00,WSDL version 420,2013-06-22 01:32:00,
2013-06-21 21:37:00,65.9,55.9,27.29,NNW,338,0.0,0.0,70,0.00,,,0.00,WSDL version 420,2013-06-22 01:37:00,
2013-06-21 21:42:00,65.9,55.8,27.29,NNW,338,0.0,0.0,70,0.00,,,0.00,WSDL version 420,2013-06-22 01:42:00,
2013-06-21 21:47:00,65.7,55.8,27.29,NNW,338,0.0,0.0,71,0.00,,,0.00,WSDL version 420,2013-06-22 01:47:00,
2013-06-21 21:52:00,65.6,55.9,27.32,NNW,338,0.0,0.0,71,0.00,,,0.00,WSDL version 420,2013-06-22 01:52:00,
2013-06-21 21:57:00,65.4,56.0,27.32,NNW,338,0.0,0.0,72,0.00,,,0.00,WSDL version 420,2013-06-22 01:57:00,
2013-06-21 22:02:00,65.2,55.9,27.32,NNW,338,0.0,0.0,72,0.00,,,0.00,WSDL version 420,2013-06-22 02:02:00,
2013-06-21 22:07:00,65.0,55.8,27.32,NNW,338,0.0,0.0,72,0.00,,,0.00,WSDL version 420,2013-06-22 02:07:00,
2013-06-21 22:12:00,65.0,56.0,27.32,NNW,338,0.0,0.0,73,0.00,,,0.00,WSDL version 420,2013-06-22 02:12:00,
2013-06-21 22:17:00,64.9,56.0,27.32,NNW,338,0.0,0.0,73,0.00,,,0.00,WSDL version 420,2013-06-22 02:17:00,
2013-06-21 22:22:00,64.9,56.2,27.32,NNW,338,0.0,0.0,74,0.00,,,0.00,WSDL version 420,2013-06-22 02:22:00,
2013-06-21 22:27:00,64.7,56.3,27.32,NNW,338,0.0,0.0,74,0.00,,,0.00,WSDL version 420,2013-06-22 02:27:00,
2013-06-21 22:32:00,64.7,56.2,27.32,NNW,338,0.0,0.0,74,0.00,,,0.00,WSDL version 420,2013-06-22 02:32:00,
2013-06-21 22:37:00,64.5,56.1,27.32,NNW,338,0.0,0.0,74,0.00,,,0.00,WSDL version 420,2013-06-22 02:37:00,
2013-06-21 22:42:00,64.5,56.1,27.32,NNW,338,0.0,0.0,75,0.00,,,0.00,WSDL version 420,2013-06-22 02:42:00,
2013-06-21 22:47:00,64.3,56.2,27.32,NNW,338,0.0,0.0,75,0.00,,,0.00,WSDL version 420,2013-06-22 02:47:00,
2013-06-21 22:52:00,64.3,56.2,27.32,NNW,338,0.0,0.0,75,0.00,,,0.00,WSDL version 420,2013-06-22 02:52:00,
2013-06-21 22:57:00,64.2,56.5,27.32,NNW,338,0.0,0.0,76,0.00,,,0.00,WSDL version 420,2013-06-22 02:57:00,
2013-06-21 23:02:00,64.1,56.4,27.32,NNW,338,0.0,0.0,76,0.00,,,0.00,WSDL version 420,2013-06-22 03:02:00,
2013-06-21 23:07:00,63.9,56.4,27.32,NNW,338,0.0,0.0,77,0.00,,,0.00,WSDL version 420,2013-06-22 03:07:00,
2013-06-21 23:12:00,63.8,56.3,27.32,NNW,338,0.0,0.0,77,0.00,,,0.00,WSDL version 420,2013-06-22 03:12:00,
2013-06-21 23:17:00,63.8,56.4,27.32,NNW,338,0.0,0.0,77,0.00,,,0.00,WSDL version 420,2013-06-22 03:17:00,
2013-06-21 23:22:00,63.6,56.3,27.32,NNW,338,0.0,0.0,77,0.00,,,0.00,WSDL version 420,2013-06-22 03:22:00,
2013-06-21 23:27:00,63.4,56.3,27.32,NNW,338,0.0,0.0,78,0.00,,,0.00,WSDL version 420,2013-06-22 03:27:00,
2013-06-21 23:32:00,63.3,56.3,27.32,NNW,338,0.0,0.0,78,0.00,,,0.00,WSDL version 420,2013-06-22 03:32:00,
2013-06-21 23:37:00,63.2,56.2,27.32,NNW,338,0.0,0.0,78,0.00,,,0.00,WSDL version 420,2013-06-22 03:37:00,
2013-06-21 23:42:00,63.1,56.2,27.32,NNW,338,0.0,0.0,79,0.00,,,0.00,WSDL version 420,2013-06-22 03:42:00,
2013-06-21 23:47:00,63.0,56.4,27.32,NNW,338,0.0,0.0,79,0.00,,,0.00,WSDL version 420,2013-06-22 03:47:00,
2013-06-21 23:52:00,62.9,56.3,27.32,NNW,338,0.0,0.0,79,0.00,,,0.00,WSDL version 420,2013-06-22 03:52:00,
2013-06-21 23:57:00,62.9,56.3,27.32,NNW,338,0.0,0.0,79,0.00,,,0.00,WSDL version 420,2013-06-22 03:57:00,